Terminal Aerodrome Forecast
Issued by NWS Tampa Bay Area, FL

Home | Current Version | Previous Version | Text Only | Print | Product List | Glossary On
Versions: 1 2 3 4 5 6 7 8 9 10 11 12 13 14 15 16 17
000
FTUS42 KTBW 051750
TAFSRQ
TAF
KSRQ 051750Z 0518/0618 16015G25KT P6SM SCT020 BKN100
     FM052100 18014G20KT P6SM VCSH SCT025 OVC040
     FM060100 15012KT 5SM -RA VCTS SCT025CB OVC040
     FM060600 15015G22KT 4SM -RA BR VCTS SCT010CB OVC020
     FM061400 20010KT 5SM BR VCTS OVC015CB=

USA.gov is the U.S. government's official web portal to all federal, state and local government web resources and services.